Time;durP1;ratioP1;P1;durP2;ratioP2;P2;SDS_P1;SDS_P2;PMS_P1;PMS_P2;Temp;Humidity;BMP_temperature;BMP_pressure;BME280_temperature;BME280_humidity;BME280_pressure;Samples;Min_cycle;Max_cycle;Signal;HPM_P1;HPM_P2
2023/08/17 00:00:09;;;;;;;14.45;7.68;;;;;;;23.85;nan;95258.00;5073559;28;20039;-81
2023/08/17 00:02:35;;;;;;;11.25;6.63;;;;;;;23.69;nan;95251.84;5072233;28;20032;-82
2023/08/17 00:05:00;;;;;;;15.23;7.85;;;;;;;24.06;nan;95336.19;5071002;28;20124;-82
2023/08/17 00:07:26;;;;;;;12.30;6.47;;;;;;;23.91;nan;95284.78;5070683;28;20038;-82
2023/08/17 00:09:51;;;;;;;13.57;6.90;;;;;;;23.61;nan;95242.00;5070753;28;20029;-82
2023/08/17 00:12:17;;;;;;;13.70;6.97;;;;;;;23.90;nan;95291.34;5070533;28;20031;-82
2023/08/17 00:14:42;;;;;;;14.85;7.50;;;;;;;24.12;nan;95332.06;5072342;28;20037;-82
2023/08/17 00:17:08;;;;;;;16.15;7.28;;;;;;;23.69;nan;95259.97;5070696;28;20060;-82
2023/08/17 00:19:33;;;;;;;11.77;6.38;;;;;;;23.83;nan;95308.22;5070848;28;20041;-82
2023/08/17 00:21:58;;;;;;;12.27;6.68;;;;;;;23.66;nan;95268.00;5070334;28;20036;-82
2023/08/17 00:24:24;;;;;;;16.02;7.35;;;;;;;23.91;nan;95307.25;5070554;28;20055;-82
2023/08/17 00:26:49;;;;;;;14.15;6.55;;;;;;;23.88;nan;95299.06;5072226;28;20162;-82
2023/08/17 00:29:15;;;;;;;19.52;7.68;;;;;;;23.95;nan;95324.38;5070683;28;20064;-81
2023/08/17 00:31:41;;;;;;;13.05;6.78;;;;;;;24.07;nan;95337.78;5070474;28;20472;-81
2023/08/17 00:34:07;;;;;;;14.05;6.93;;;;;;;23.56;nan;95258.53;5071950;28;20043;-81
2023/08/17 00:36:32;;;;;;;12.80;6.93;;;;;;;24.04;nan;95329.56;5071319;28;20032;-81
2023/08/17 00:38:58;;;;;;;17.20;6.35;;;;;;;23.85;nan;95309.47;5070520;28;20101;-81
2023/08/17 00:41:23;;;;;;;13.10;6.63;;;;;;;24.00;nan;95324.09;5070112;28;20127;-81
2023/08/17 00:43:49;;;;;;;15.20;6.00;;;;;;;23.90;nan;95310.31;5069506;28;20032;-81
2023/08/17 00:46:14;;;;;;;13.82;7.18;;;;;;;23.72;nan;95297.19;5069664;28;20519;-81
2023/08/17 00:48:41;;;;;;;10.48;6.15;;;;;;;24.00;nan;95328.72;5071799;28;20187;-81
2023/08/17 00:51:06;;;;;;;9.98;6.10;;;;;;;23.76;nan;95291.84;5071157;28;20520;-81
2023/08/17 00:53:32;;;;;;;15.30;6.10;;;;;;;23.92;nan;95330.50;5070304;28;20036;-81
2023/08/17 00:55:59;;;;;;;11.52;5.57;;;;;;;23.67;nan;95280.41;5071945;28;20041;-81
2023/08/17 00:58:25;;;;;;;11.48;5.75;;;;;;;23.85;nan;95308.66;5069694;28;20036;-81
2023/08/17 01:00:51;;;;;;;14.25;5.80;;;;;;;23.80;nan;95304.31;5070954;28;20039;-81
2023/08/17 01:03:18;;;;;;;11.43;5.70;;;;;;;23.90;nan;95310.31;5070237;28;20036;-81
2023/08/17 01:05:44;;;;;;;12.25;5.78;;;;;;;23.50;nan;95273.47;5069745;28;20044;-81
2023/08/17 01:08:09;;;;;;;9.98;5.28;;;;;;;23.31;nan;95255.25;5070150;28;20483;-81
2023/08/17 01:10:52;;;;;;;14.05;5.07;;;;;;;23.51;nan;95275.03;5070887;28;20518;-81
2023/08/17 01:13:23;;;;;;;13.63;5.43;;;;;;;23.80;nan;95317.09;5070331;28;20052;-81
2023/08/17 01:15:55;;;;;;;12.35;4.97;;;;;;;23.53;nan;95304.47;5070443;28;20426;-81
2023/08/17 01:18:39;;;;;;;15.77;5.03;;;;;;;23.76;nan;95321.63;5071771;28;20131;-81
2023/08/17 01:21:08;;;;;;;7.32;5.07;;;;;;;23.74;nan;95319.25;5072104;28;20116;-81
2023/08/17 01:23:34;;;;;;;16.58;5.43;;;;;;;23.57;nan;95281.78;5069506;28;20485;-81
2023/08/17 01:25:59;;;;;;;10.98;4.68;;;;;;;23.79;nan;95313.59;5070299;28;20033;-81
2023/08/17 01:28:25;;;;;;;10.38;4.80;;;;;;;23.65;nan;95288.13;5071153;28;20024;-82
2023/08/17 01:31:00;;;;;;;16.08;5.97;;;;;;;23.82;nan;95315.56;5069435;28;20042;-81
2023/08/17 01:33:34;;;;;;;10.88;4.93;;;;;;;23.66;nan;95308.63;5069503;28;20032;-81
2023/08/17 01:36:11;;;;;;;12.20;5.65;;;;;;;23.73;nan;95312.28;5069849;28;20039;-81
2023/08/17 01:38:40;;;;;;;15.05;4.75;;;;;;;23.38;nan;95247.28;5069579;28;20383;-81
2023/08/17 01:41:06;;;;;;;16.20;4.85;;;;;;;23.34;nan;95257.25;5070043;28;20036;-81
2023/08/17 01:43:33;;;;;;;13.48;5.25;;;;;;;23.76;nan;95316.22;5071629;28;20043;-82
2023/08/17 01:46:00;;;;;;;9.48;4.85;;;;;;;23.62;nan;95300.44;5070538;28;20127;-82
2023/08/17 01:48:25;;;;;;;11.13;4.68;;;;;;;23.71;nan;95314.56;5070006;28;20048;-82
2023/08/17 01:50:51;;;;;;;10.68;4.47;;;;;;;23.67;nan;95318.31;5071578;28;20116;-82
2023/08/17 01:53:16;;;;;;;8.38;4.38;;;;;;;23.64;nan;95319.03;5070117;28;20488;-82
2023/08/17 01:55:42;;;;;;;13.07;5.13;;;;;;;23.41;nan;95284.47;5069982;28;20121;-82
2023/08/17 01:58:07;;;;;;;15.82;4.55;;;;;;;23.47;nan;95283.06;5069937;28;20030;-82
2023/08/17 02:00:33;;;;;;;9.48;4.70;;;;;;;23.63;nan;95309.34;5072106;28;20036;-82
2023/08/17 02:02:58;;;;;;;7.40;3.60;;;;;;;23.12;nan;95227.34;5071163;28;20036;-82
2023/08/17 02:05:23;;;;;;;14.48;4.70;;;;;;;23.32;nan;95261.44;5071687;28;20028;-82
2023/08/17 02:07:49;;;;;;;11.63;4.80;;;;;;;23.67;nan;95321.81;5071432;28;20056;-82
2023/08/17 02:10:14;;;;;;;12.65;4.47;;;;;;;23.12;nan;95232.75;5070161;28;20020;-83
2023/08/17 02:12:40;;;;;;;13.63;4.43;;;;;;;23.47;nan;95280.38;5073319;28;20104;-81
2023/08/17 02:15:06;;;;;;;13.57;4.75;;;;;;;23.10;nan;95243.94;5074308;28;20032;-80
2023/08/17 02:17:31;;;;;;;15.50;5.80;;;;;;;23.36;nan;95289.34;5074772;28;20429;-81
2023/08/17 02:19:57;;;;;;;9.65;4.47;;;;;;;23.31;nan;95289.63;5074530;28;20041;-80
2023/08/17 02:22:23;;;;;;;11.18;4.80;;;;;;;23.52;nan;95308.31;5074909;28;20461;-81
2023/08/17 02:24:49;;;;;;;9.68;4.72;;;;;;;23.51;nan;95304.81;5072846;28;20127;-80
2023/08/17 02:27:14;;;;;;;15.77;5.80;;;;;;;23.12;nan;95254.38;5074592;28;20052;-80
2023/08/17 02:29:40;;;;;;;14.70;5.40;;;;;;;23.47;nan;95307.44;5074364;28;20490;-81
2023/08/17 02:32:05;;;;;;;9.52;4.47;;;;;;;23.43;nan;95311.97;5074559;28;20033;-80
2023/08/17 02:34:31;;;;;;;17.13;4.57;;;;;;;23.24;nan;95281.34;5072587;28;20024;-81
2023/08/17 02:36:56;;;;;;;13.30;5.13;;;;;;;23.28;nan;95296.53;5072712;28;20435;-80
2023/08/17 02:39:21;;;;;;;11.68;4.70;;;;;;;23.27;nan;95291.47;5072709;28;20056;-80
2023/08/17 02:41:49;;;;;;;13.98;5.00;;;;;;;23.20;nan;95310.22;5073870;28;20047;-81
2023/08/17 02:44:15;;;;;;;8.45;4.65;;;;;;;23.19;nan;95304.03;5072700;28;20124;-81
2023/08/17 02:46:40;;;;;;;13.23;4.65;;;;;;;23.24;nan;95306.50;5055539;28;20071;-81
2023/08/17 02:49:06;;;;;;;10.48;4.63;;;;;;;22.91;nan;95255.47;5073322;28;20028;-80
2023/08/17 02:51:31;;;;;;;12.32;5.47;;;;;;;22.88;nan;95252.69;5073322;28;20042;-81
2023/08/17 02:53:57;;;;;;;9.55;4.00;;;;;;;22.89;nan;95254.22;5075863;28;20039;-81
2023/08/17 02:56:22;;;;;;;8.70;3.97;;;;;;;23.21;nan;95312.59;5074982;28;20127;-81
2023/08/17 02:58:47;;;;;;;7.55;4.10;;;;;;;22.67;nan;95223.16;5075480;28;20028;-81
2023/08/17 03:01:13;;;;;;;9.77;4.28;;;;;;;22.68;nan;95232.84;5075031;28;20089;-81
2023/08/17 03:03:38;;;;;;;10.10;4.63;;;;;;;22.95;nan;95272.56;5074307;28;20036;-81
2023/08/17 03:06:05;;;;;;;14.65;4.40;;;;;;;23.01;nan;95283.91;5075232;28;20051;-81
2023/08/17 03:08:30;;;;;;;10.98;4.00;;;;;;;22.98;nan;95287.31;5075192;28;20426;-82
2023/08/17 03:10:56;;;;;;;13.48;4.40;;;;;;;22.87;nan;95284.34;5075887;28;20036;-82
2023/08/17 03:13:21;;;;;;;12.63;4.72;;;;;;;23.00;nan;95304.75;5074230;28;20028;-82
2023/08/17 03:15:47;;;;;;;9.45;4.28;;;;;;;22.84;nan;95266.09;5074274;28;20033;-82
2023/08/17 03:18:12;;;;;;;13.68;4.53;;;;;;;22.99;nan;95302.41;5073629;28;20106;-82
2023/08/17 03:20:38;;;;;;;10.50;4.03;;;;;;;22.66;nan;95268.31;5057191;28;20116;-82
2023/08/17 03:23:08;;;;;;;8.75;4.57;;;;;;;22.74;nan;95268.53;5074249;28;20029;-81
2023/08/17 03:25:34;;;;;;;7.50;4.20;;;;;;;22.78;nan;95294.53;5071218;28;20028;-82
2023/08/17 03:28:00;;;;;;;9.00;3.80;;;;;;;22.48;nan;95240.09;5073073;28;20067;-81
2023/08/17 03:30:25;;;;;;;10.00;4.22;;;;;;;22.25;nan;95218.25;5073872;28;20119;-81
2023/08/17 03:32:50;;;;;;;8.45;4.35;;;;;;;22.79;nan;95304.22;5073335;28;20056;-82
2023/08/17 03:35:16;;;;;;;11.95;4.45;;;;;;;22.78;nan;95302.66;5073535;28;20055;-82
2023/08/17 03:37:41;;;;;;;11.88;3.65;;;;;;;22.12;nan;95219.47;5071576;28;20039;-82
2023/08/17 03:40:07;;;;;;;10.30;4.25;;;;;;;22.46;nan;95266.66;5071358;28;20056;-82
2023/08/17 03:42:33;;;;;;;6.28;3.80;;;;;;;22.57;nan;95296.69;5073463;28;20089;-81
2023/08/17 03:44:58;;;;;;;10.02;4.40;;;;;;;22.68;nan;95303.91;5073395;28;20107;-81
2023/08/17 03:47:24;;;;;;;9.63;3.97;;;;;;;22.40;nan;95268.03;5073315;28;20033;-81
2023/08/17 03:49:49;;;;;;;7.72;3.72;;;;;;;22.14;nan;95233.38;5072453;28;20025;-81
2023/08/17 03:52:15;;;;;;;12.85;4.05;;;;;;;22.32;nan;95260.88;5071665;28;20020;-81
2023/08/17 03:54:40;;;;;;;7.03;3.97;;;;;;;22.34;nan;95269.44;5072252;28;20137;-81
2023/08/17 03:57:06;;;;;;;9.32;3.78;;;;;;;22.52;nan;95299.63;5072448;28;20147;-81
2023/08/17 03:59:31;;;;;;;8.32;3.95;;;;;;;22.37;nan;95294.97;5073008;28;20080;-81
2023/08/17 04:01:56;;;;;;;8.93;4.10;;;;;;;22.12;nan;95270.00;5071599;28;20041;-81
2023/08/17 04:04:22;;;;;;;11.10;4.55;;;;;;;22.27;nan;95297.06;5072163;28;20036;-81
2023/08/17 04:06:47;;;;;;;8.65;3.95;;;;;;;22.08;nan;95261.78;5072601;28;20075;-81
2023/08/17 04:09:13;;;;;;;10.93;4.18;;;;;;;22.46;nan;95320.69;5073009;28;20021;-82
2023/08/17 04:11:38;;;;;;;5.50;4.15;;;;;;;22.33;nan;95311.09;5071522;28;20101;-81
2023/08/17 04:14:04;;;;;;;11.98;4.13;;;;;;;22.38;nan;95320.84;5072255;28;20067;-81
2023/08/17 04:16:32;;;;;;;15.02;4.80;;;;;;;22.37;nan;95320.06;5070989;28;20048;-82
2023/08/17 04:18:58;;;;;;;10.73;4.28;;;;;;;22.22;nan;95291.88;5054630;28;20467;-81
2023/08/17 04:21:24;;;;;;;7.28;4.40;;;;;;;22.45;nan;95318.34;5072572;28;20036;-82
2023/08/17 04:23:49;;;;;;;12.00;4.65;;;;;;;22.43;nan;95318.69;5072733;28;20124;-81
2023/08/17 04:26:15;;;;;;;12.32;4.32;;;;;;;22.43;nan;95315.97;5072442;28;20033;-81
2023/08/17 04:28:40;;;;;;;19.92;5.43;;;;;;;22.31;nan;95300.63;5072825;28;20036;-82
2023/08/17 04:31:06;;;;;;;13.57;4.80;;;;;;;22.49;nan;95322.72;5072597;28;20043;-81
2023/08/17 04:33:31;;;;;;;14.90;5.45;;;;;;;22.16;nan;95260.84;5070523;28;20177;-83
2023/08/17 04:35:58;;;;;;;8.05;4.35;;;;;;;22.15;nan;95259.28;5071328;28;20505;-83
2023/08/17 04:38:25;;;;;;;12.68;4.53;;;;;;;22.51;nan;95300.75;5073067;28;20478;-83
2023/08/17 04:40:50;;;;;;;15.57;5.55;;;;;;;22.28;nan;95297.81;5073540;28;20380;-83
2023/08/17 04:43:15;;;;;;;8.73;4.35;;;;;;;22.27;nan;95280.06;5071723;28;20043;-83
2023/08/17 04:45:41;;;;;;;10.00;4.20;;;;;;;22.56;nan;95317.50;5072859;28;20032;-83
2023/08/17 04:48:06;;;;;;;14.27;4.78;;;;;;;22.44;nan;95295.16;5071443;28;20040;-83
2023/08/17 04:50:32;;;;;;;13.27;5.40;;;;;;;22.58;nan;95317.16;5070475;28;20063;-83
2023/08/17 04:52:57;;;;;;;15.82;5.38;;;;;;;22.55;nan;95307.03;5070876;28;20038;-83
2023/08/17 04:55:23;;;;;;;18.30;5.05;;;;;;;22.48;nan;95293.34;5070845;28;20429;-83
2023/08/17 04:57:48;;;;;;;13.45;5.00;;;;;;;22.71;nan;95322.16;5071170;28;20032;-82
2023/08/17 05:00:15;;;;;;;12.38;4.75;;;;;;;22.59;nan;95299.78;5072230;28;20033;-83
2023/08/17 05:02:41;;;;;;;17.98;6.25;;;;;;;22.73;nan;95311.00;5071195;28;20071;-83
2023/08/17 05:05:08;;;;;;;25.75;7.78;;;;;;;22.63;nan;95304.19;5070473;28;20020;-82
2023/08/17 05:07:34;;;;;;;20.95;6.07;;;;;;;22.75;nan;95316.84;5069250;28;20024;-82
2023/08/17 05:10:00;;;;;;;14.80;6.22;;;;;;;22.56;nan;95305.91;5069995;28;20025;-83
2023/08/17 05:12:25;;;;;;;16.25;5.63;;;;;;;22.46;nan;95280.16;5071226;28;20506;-82
2023/08/17 05:14:50;;;;;;;12.30;5.85;;;;;;;22.45;nan;95281.28;5071319;28;20082;-82
2023/08/17 05:17:16;;;;;;;14.55;4.43;;;;;;;22.74;nan;95323.38;5071761;28;20153;-82
2023/08/17 05:19:41;;;;;;;12.05;5.18;;;;;;;22.45;nan;95302.91;5072052;28;20102;-82
2023/08/17 05:22:12;;;;;;;24.63;5.82;;;;;;;22.45;nan;95297.50;5073400;28;20032;-82
2023/08/17 05:24:38;;;;;;;15.93;5.07;;;;;;;22.56;nan;95319.44;5071659;28;20580;-82
2023/08/17 05:27:04;;;;;;;10.57;4.63;;;;;;;22.47;nan;95316.88;5073585;28;20410;-82
2023/08/17 05:29:32;;;;;;;12.43;3.88;;;;;;;22.27;nan;95277.34;5071579;28;20123;-82
2023/08/17 05:31:57;;;;;;;9.40;4.95;;;;;;;22.33;nan;95300.28;5074423;28;20433;-82
2023/08/17 05:34:23;;;;;;;26.23;5.15;;;;;;;22.03;nan;95247.75;5072551;28;20194;-82
2023/08/17 05:36:49;;;;;;;11.55;4.60;;;;;;;22.23;nan;95287.25;5073456;28;20033;-82
2023/08/17 05:39:14;;;;;;;13.63;4.65;;;;;;;22.45;nan;95294.03;5073117;28;20036;-82
2023/08/17 05:41:39;;;;;;;12.82;4.53;;;;;;;22.09;nan;95243.66;5072235;28;20032;-82
2023/08/17 05:44:06;;;;;;;12.80;4.72;;;;;;;22.47;nan;95307.97;5070250;28;20028;-82
2023/08/17 05:46:32;;;;;;;10.15;3.97;;;;;;;22.38;nan;95296.53;5071418;28;20028;-81
2023/08/17 05:48:59;;;;;;;13.77;4.28;;;;;;;22.20;nan;95267.13;5073776;28;20033;-82
2023/08/17 05:51:24;;;;;;;12.07;4.10;;;;;;;22.46;nan;95307.19;5076362;28;20036;-81
2023/08/17 05:53:50;;;;;;;12.25;4.72;;;;;;;22.53;nan;95295.78;5076558;28;20095;-81
2023/08/17 05:56:15;;;;;;;13.15;4.43;;;;;;;22.70;nan;95311.69;5074014;28;20217;-81
2023/08/17 05:58:41;;;;;;;9.45;3.60;;;;;;;22.74;nan;95299.06;5074517;28;20068;-82
2023/08/17 06:01:07;;;;;;;13.63;3.95;;;;;;;22.94;nan;95308.06;5073581;28;20039;-81
2023/08/17 06:03:37;;;;;;;7.70;3.88;;;;;;;23.09;nan;95323.53;5076178;28;20481;-81
2023/08/17 06:06:03;;;;;;;11.10;4.43;;;;;;;23.07;nan;95317.66;5075919;28;20036;-82
2023/08/17 06:08:29;;;;;;;15.43;6.35;;;;;;;23.03;nan;95289.75;5074672;28;20063;-82
2023/08/17 06:10:55;;;;;;;14.90;6.43;;;;;;;23.01;nan;95292.81;5073571;28;20039;-82
2023/08/17 06:13:21;;;;;;;16.52;7.15;;;;;;;23.36;nan;95328.03;5075775;28;20020;-82
2023/08/17 06:15:46;;;;;;;18.13;7.88;;;;;;;23.03;nan;95262.72;5075376;28;20050;-82
2023/08/17 06:18:12;;;;;;;25.65;7.82;;;;;;;23.53;nan;95331.53;5107155;28;20072;-81
2023/08/17 06:20:37;;;;;;;13.85;6.95;;;;;;;23.64;nan;95329.88;5074419;28;20431;-82
2023/08/17 06:23:02;;;;;;;14.73;6.75;;;;;;;23.56;nan;95314.59;5074136;28;20055;-81
2023/08/17 06:25:28;;;;;;;13.00;6.18;;;;;;;23.73;nan;95323.09;5073713;28;20047;-81
2023/08/17 06:27:53;;;;;;;15.02;5.85;;;;;;;23.72;nan;95307.22;5073800;28;20047;-82
2023/08/17 06:30:19;;;;;;;13.43;5.65;;;;;;;23.71;nan;95311.88;5073407;28;20522;-82
2023/08/17 06:32:44;;;;;;;17.55;5.55;;;;;;;23.47;nan;95274.94;5073392;28;20055;-81
2023/08/17 06:35:10;;;;;;;11.93;4.65;;;;;;;23.69;nan;95297.88;5074757;28;20064;-82
2023/08/17 06:37:36;;;;;;;11.23;5.45;;;;;;;23.97;nan;95332.13;5074993;28;20123;-81
2023/08/17 06:40:05;;;;;;;25.42;4.70;;;;;;;24.05;nan;95337.34;5073308;28;20032;-81
2023/08/17 06:42:31;;;;;;;16.50;4.82;;;;;;;24.17;nan;95334.50;5073085;28;20044;-82
2023/08/17 06:44:57;;;;;;;13.02;5.68;;;;;;;23.90;nan;95289.44;5072958;28;20044;-82
2023/08/17 06:47:22;;;;;;;15.48;4.72;;;;;;;24.25;nan;95335.47;5072447;28;20181;-82
2023/08/17 06:49:48;;;;;;;12.05;5.35;;;;;;;23.91;nan;95266.63;5074595;28;20041;-82
2023/08/17 06:52:13;;;;;;;14.30;5.13;;;;;;;24.21;nan;95312.91;5073082;28;20028;-82
2023/08/17 06:54:38;;;;;;;15.82;5.10;;;;;;;24.01;nan;95273.41;5071972;28;20040;-82
2023/08/17 06:57:04;;;;;;;10.38;5.97;;;;;;;24.28;nan;95320.41;5071593;28;20032;-82
2023/08/17 06:59:30;;;;;;;10.88;5.43;;;;;;;24.18;nan;95289.22;5072049;28;20056;-82
2023/08/17 07:01:56;;;;;;;20.42;5.72;;;;;;;24.29;nan;95297.59;5072488;28;20151;-81
2023/08/17 07:04:22;;;;;;;18.95;6.05;;;;;;;24.59;nan;95331.09;5072675;28;20081;-81
2023/08/17 07:06:49;;;;;;;12.70;6.43;;;;;;;24.35;nan;95301.56;5072457;28;20119;-81
2023/08/17 07:09:14;;;;;;;11.80;6.20;;;;;;;24.61;nan;95342.38;5072459;28;20032;-81
2023/08/17 07:11:40;;;;;;;11.23;5.72;;;;;;;24.70;nan;95334.78;5073676;28;20040;-81
2023/08/17 07:14:06;;;;;;;17.30;5.07;;;;;;;24.34;nan;95264.75;5071672;28;20421;-81
2023/08/17 07:16:32;;;;;;;7.85;5.10;;;;;;;24.79;nan;95327.22;5071672;28;20143;-81
2023/08/17 07:18:57;;;;;;;10.57;5.78;;;;;;;24.48;nan;95279.41;5073574;28;20136;-81
2023/08/17 07:21:23;;;;;;;12.95;5.50;;;;;;;24.90;nan;95330.91;5073494;28;20028;-81
2023/08/17 07:23:50;;;;;;;15.52;5.32;;;;;;;24.78;nan;95306.66;5073381;28;20064;-81
2023/08/17 07:26:16;;;;;;;17.08;4.90;;;;;;;24.97;nan;95319.41;5073609;28;20029;-81
2023/08/17 07:28:41;;;;;;;19.50;6.55;;;;;;;24.90;nan;95308.41;5073186;28;20074;-81
2023/08/17 07:31:06;;;;;;;16.67;4.97;;;;;;;24.83;nan;95286.59;5072874;28;20020;-81
2023/08/17 07:33:32;;;;;;;12.98;5.70;;;;;;;24.99;nan;95292.69;5071320;28;20028;-81
2023/08/17 07:35:58;;;;;;;16.65;5.20;;;;;;;25.09;nan;95310.31;5073068;28;20119;-81
2023/08/17 07:38:24;;;;;;;14.13;3.97;;;;;;;25.21;nan;95319.03;5073093;28;20028;-81
2023/08/17 07:40:49;;;;;;;11.27;4.75;;;;;;;25.31;nan;95325.78;5073581;28;20094;-81
2023/08/17 07:43:15;;;;;;;18.10;5.15;;;;;;;24.91;nan;95261.97;5071709;28;20094;-81
2023/08/17 07:45:40;;;;;;;7.85;4.40;;;;;;;25.30;nan;95310.66;5073656;28;20040;-81
2023/08/17 07:48:06;;;;;;;8.95;4.53;;;;;;;25.44;nan;95331.81;5071218;28;20516;-81
2023/08/17 07:50:31;;;;;;;9.75;4.57;;;;;;;25.31;nan;95283.16;5073001;28;20028;-81
2023/08/17 07:52:57;;;;;;;11.30;4.13;;;;;;;25.28;nan;95288.50;5072846;28;20028;-81
2023/08/17 07:55:26;;;;;;;13.15;5.40;;;;;;;25.45;nan;95292.66;5071187;28;20258;-81
2023/08/17 07:57:51;;;;;;;7.97;4.57;;;;;;;25.30;nan;95278.06;5072370;28;20115;-81
2023/08/17 08:00:17;;;;;;;15.75;4.40;;;;;;;25.29;nan;95263.72;5071029;28;20060;-81
2023/08/17 08:02:42;;;;;;;6.32;4.30;;;;;;;25.66;nan;95314.72;5072782;28;20037;-80
2023/08/17 08:05:08;;;;;;;16.17;4.18;;;;;;;25.40;nan;95265.81;5070130;28;20028;-80
2023/08/17 08:07:33;;;;;;;7.97;3.88;;;;;;;25.63;nan;95302.63;5071362;28;20485;-80
2023/08/17 08:09:59;;;;;;;10.23;4.40;;;;;;;25.69;nan;95290.34;5071546;28;20036;-80
2023/08/17 08:12:24;;;;;;;10.10;4.22;;;;;;;25.85;nan;95306.47;5070946;28;20117;-80
2023/08/17 08:14:51;;;;;;;8.40;4.13;;;;;;;25.85;nan;95283.94;5072237;28;20063;-80
2023/08/17 08:17:16;;;;;;;8.13;3.50;;;;;;;25.99;nan;95292.28;5070675;28;20515;-80
2023/08/17 08:19:41;;;;;;;9.35;4.03;;;;;;;25.99;nan;95281.41;5072533;28;20040;-80
2023/08/17 08:22:07;;;;;;;13.60;3.60;;;;;;;26.09;nan;95299.78;5070850;28;20043;-82
2023/08/17 08:24:34;;;;;;;6.15;3.45;;;;;;;25.77;nan;95247.75;5070804;28;20037;-82
2023/08/17 08:27:01;;;;;;;13.02;4.20;;;;;;;26.03;nan;95260.47;5072428;28;20594;-82
2023/08/17 08:29:26;;;;;;;13.77;3.90;;;;;;;25.89;nan;95225.78;5070714;28;20032;-82
2023/08/17 08:31:53;;;;;;;11.55;3.88;;;;;;;26.12;nan;95255.53;5071875;28;20228;-82
2023/08/17 08:34:18;;;;;;;11.55;4.43;;;;;;;26.24;nan;95274.34;5070964;28;20591;-82
2023/08/17 08:36:44;;;;;;;6.03;3.53;;;;;;;26.48;nan;95292.09;5072423;28;20075;-82
2023/08/17 08:39:10;;;;;;;7.88;3.70;;;;;;;26.37;nan;95283.84;5070710;28;20043;-82
2023/08/17 08:41:37;;;;;;;8.90;3.75;;;;;;;26.26;nan;95254.94;5069293;28;20106;-82
2023/08/17 08:44:03;;;;;;;10.40;3.90;;;;;;;26.30;nan;95250.34;5071907;28;20074;-82
2023/08/17 08:46:32;;;;;;;11.05;3.78;;;;;;;26.19;nan;95227.66;5071032;28;20375;-81
2023/08/17 08:48:58;;;;;;;9.25;4.45;;;;;;;26.47;nan;95264.13;5072704;28;20116;-82
2023/08/17 08:51:28;;;;;;;9.00;3.85;;;;;;;26.72;nan;95288.84;5073359;28;20044;-82
2023/08/17 08:54:06;;;;;;;9.55;4.28;;;;;;;26.78;nan;95283.84;5074126;28;20040;-81
2023/08/17 08:56:33;;;;;;;6.32;4.05;;;;;;;26.92;nan;95283.25;5072706;28;20040;-82
2023/08/17 08:59:02;;;;;;;6.65;3.60;;;;;;;26.71;nan;95243.75;5072634;28;20036;-81
2023/08/17 09:01:30;;;;;;;6.35;3.53;;;;;;;26.76;nan;95248.09;5072795;28;20041;-81
2023/08/17 09:03:58;;;;;;;5.53;2.97;;;;;;;27.03;nan;95275.94;5072562;28;20106;-81
2023/08/17 09:06:25;;;;;;;8.07;3.08;;;;;;;27.04;nan;95270.13;5073691;28;20454;-82
2023/08/17 09:08:51;;;;;;;11.50;3.30;;;;;;;26.76;nan;95215.44;5072737;28;20536;-81
2023/08/17 09:11:17;;;;;;;8.32;3.30;;;;;;;26.68;nan;95184.69;5072810;28;20032;-81
2023/08/17 09:13:42;;;;;;;13.07;3.97;;;;;;;26.94;nan;95205.50;5072590;28;20463;-80
2023/08/17 09:16:08;;;;;;;6.50;3.40;;;;;;;27.31;nan;95257.13;5074013;28;20037;-81
2023/08/17 09:18:35;;;;;;;7.25;3.70;;;;;;;27.17;nan;95227.84;5073912;28;20455;-81
2023/08/17 09:21:01;;;;;;;8.73;3.75;;;;;;;27.22;nan;95238.41;5075153;28;20028;-80
2023/08/17 09:23:26;;;;;;;11.30;4.03;;;;;;;27.43;nan;95245.13;5080734;28;20041;-81
2023/08/17 09:25:57;;;;;;;6.43;3.65;;;;;;;27.45;nan;95240.88;5080409;28;20040;-81
2023/08/17 09:28:24;;;;;;;7.03;3.72;;;;;;;27.57;nan;95251.47;5078310;28;20044;-81
2023/08/17 09:31:03;;;;;;;7.45;3.35;;;;;;;27.09;nan;95195.50;5080942;28;20414;-81
2023/08/17 09:33:32;;;;;;;7.35;3.17;;;;;;;27.37;nan;95235.75;5077212;28;20040;-81
2023/08/17 09:35:59;;;;;;;6.40;3.03;;;;;;;27.57;nan;95243.31;5076073;28;20043;-81
2023/08/17 09:38:25;;;;;;;7.28;3.40;;;;;;;27.33;nan;95185.94;5078352;28;20040;-81
2023/08/17 09:40:52;;;;;;;8.25;2.92;;;;;;;27.64;nan;95216.09;5076832;28;20119;-81
2023/08/17 09:43:18;;;;;;;6.30;3.10;;;;;;;27.76;nan;95227.84;5077307;28;20021;-81
2023/08/17 09:45:49;;;;;;;7.00;3.25;;;;;;;27.47;nan;95166.94;5077946;28;20156;-81
2023/08/17 09:48:19;;;;;;;;;;;;;;;27.93;nan;95227.13;5076944;28;20024;-81
2023/08/17 09:50:45;;;;;;;6.85;3.25;;;;;;;27.93;nan;95216.22;5076665;28;19916;-81
2023/08/17 09:53:16;;;;;;;9.10;3.30;;;;;;;27.65;nan;95171.34;5076735;28;20040;-81
2023/08/17 09:55:43;;;;;;;5.25;3.05;;;;;;;28.04;nan;95195.25;5077433;28;20347;-80
2023/08/17 09:58:08;;;;;;;4.38;2.58;;;;;;;28.53;nan;95188.38;5076256;28;20071;-81
2023/08/17 10:00:35;;;;;;;4.53;2.50;;;;;;;29.37;nan;95195.03;5076933;28;20024;-81
2023/08/17 10:03:03;;;;;;;6.45;2.47;;;;;;;30.03;nan;95163.22;5079685;28;20059;-82
2023/08/17 10:05:33;;;;;;;7.93;3.63;;;;;;;30.93;nan;95151.25;5078957;28;20066;-83
2023/08/17 10:08:00;;;;;;;5.22;2.35;;;;;;;31.85;nan;95146.81;5077152;28;20036;-83
2023/08/17 10:10:29;;;;;;;5.63;2.38;;;;;;;32.80;nan;95210.63;5077006;28;20039;-83
2023/08/17 10:13:23;;;;;;;9.57;3.15;;;;;;;33.54;nan;95186.63;5078757;28;20043;-82
2023/08/17 10:15:50;;;;;;;8.43;2.30;;;;;;;34.52;nan;95198.81;5067927;28;20054;-82
2023/08/17 10:18:27;;;;;;;6.13;2.60;;;;;;;35.15;nan;95177.28;5076458;28;20136;-82
2023/08/17 10:21:00;;;;;;;5.97;2.28;;;;;;;35.64;nan;95188.22;5076956;28;20491;-82
2023/08/17 10:23:27;;;;;;;6.22;1.98;;;;;;;35.98;nan;95179.44;5076800;28;20039;-82
2023/08/17 10:25:53;;;;;;;5.20;1.77;;;;;;;36.42;nan;95188.81;5078357;28;20111;-83
2023/08/17 10:28:20;;;;;;;8.80;2.40;;;;;;;36.10;nan;95114.41;5076115;28;20533;-82
2023/08/17 10:30:46;;;;;;;5.35;2.55;;;;;;;36.78;nan;95182.22;5076743;28;20178;-82
2023/08/17 10:33:12;;;;;;;8.70;2.10;;;;;;;36.84;nan;95152.81;5075351;28;20060;-82
2023/08/17 10:35:38;;;;;;;6.40;2.90;;;;;;;37.34;nan;95193.44;5073097;28;20035;-82
2023/08/17 10:38:04;;;;;;;4.32;2.55;;;;;;;36.80;nan;95110.69;5074918;28;20032;-83
2023/08/17 10:40:35;;;;;;;6.18;2.17;;;;;;;37.51;nan;95203.13;5074191;28;20048;-82
2023/08/17 10:43:01;;;;;;;4.72;2.30;;;;;;;37.52;nan;95196.38;5075771;28;20366;-82
2023/08/17 10:45:30;;;;;;;3.92;2.08;;;;;;;37.66;nan;95175.75;5074475;28;20025;-82
2023/08/17 10:48:11;;;;;;;4.38;2.78;;;;;;;37.89;nan;95191.94;5074777;28;20111;-82
2023/08/17 10:50:36;;;;;;;;;;;;;;;38.05;nan;95177.16;5074950;28;20086;-82
2023/08/17 10:53:10;;;;;;;4.63;2.20;;;;;;;38.06;nan;95181.47;5074415;28;19924;-82
2023/08/17 10:55:40;;;;;;;3.83;2.35;;;;;;;37.99;nan;95157.56;5075572;28;20028;-82
2023/08/17 10:58:08;;;;;;;8.00;2.72;;;;;;;38.07;nan;95144.25;5074361;28;20056;-82
2023/08/17 11:00:40;;;;;;;19.95;3.13;;;;;;;38.36;nan;95179.94;5074841;28;20029;-82
2023/08/17 11:03:10;;;;;;;6.03;2.28;;;;;;;37.92;nan;95093.38;5075439;28;20035;-82
2023/08/17 11:05:43;;;;;;;2.85;1.92;;;;;;;38.54;nan;95177.28;5073780;28;20230;-82
2023/08/17 11:08:33;;;;;;;6.80;2.60;;;;;;;38.56;nan;95170.06;5073279;28;20048;-82
2023/08/17 11:11:03;;;;;;;7.80;2.80;;;;;;;38.82;nan;95167.84;5072960;28;20056;-82
2023/08/17 11:13:36;;;;;;;9.32;3.40;;;;;;;38.65;nan;95168.56;5075680;28;20044;-81
2023/08/17 11:16:03;;;;;;;9.70;2.78;;;;;;;38.63;nan;95160.69;5075374;28;20522;-81
2023/08/17 11:18:29;;;;;;;4.78;2.80;;;;;;;38.52;nan;95127.09;5075265;28;20063;-82
2023/08/17 11:20:55;;;;;;;6.53;2.70;;;;;;;38.44;nan;95143.22;5072429;28;20033;-82
2023/08/17 11:23:22;;;;;;;13.23;2.50;;;;;;;38.54;nan;95139.25;5074239;28;20471;-81
2023/08/17 11:25:48;;;;;;;7.95;2.50;;;;;;;38.53;nan;95140.47;5074195;28;20035;-80
2023/08/17 11:28:14;;;;;;;8.18;2.50;;;;;;;38.50;nan;95173.88;5072726;28;20055;-81
2023/08/17 11:30:41;;;;;;;4.30;1.90;;;;;;;38.25;nan;95094.47;5072044;28;20052;-81
2023/08/17 11:33:08;;;;;;;5.28;2.40;;;;;;;38.51;nan;95164.34;5072909;28;20127;-81
2023/08/17 11:35:34;;;;;;;5.90;2.40;;;;;;;38.33;nan;95161.44;5074556;28;20029;-81
2023/08/17 11:37:59;;;;;;;5.80;2.47;;;;;;;38.05;nan;95121.78;5073831;28;20090;-81
2023/08/17 11:40:26;;;;;;;4.30;2.20;;;;;;;38.01;nan;95110.78;5071779;28;20131;-81
2023/08/17 11:42:51;;;;;;;7.45;2.45;;;;;;;38.20;nan;95140.16;5073743;28;20086;-81